• Join FlightAware (Why Join?)
  • Login
  • US Flag 
06:57PM EDT


 

Airport Tracker/Info


-or-


 

Live Flight TrackerFlight Track Log ✈ DAL2082 ✈ 02-Jul-2013 ✈ KMHT - KATL

Flight Track Log - Related Links

Times and Time Zones

All times are in EDT time to prevent confusion due to time zone crossing. See the DAL2082 flight status page for this flight to view local times or setup timezone preferences in your user account.

Time Position Orientation Groundspeed Altitude Reporting Facility
EDT Latitude Longitude Course Direction KTS MPH feet Rate Location/Type
05:35PM 42.9000 -71.4167 202° Southwest 177 204 1,300  Level KA90
05:36PM 42.8500 -71.4500 206° Southwest 238 274 3,500 2,400 Climbing KA90
05:37PM 42.8167 -71.3833 124° Southeast 304 350 6,200 2,460 Climbing KA90
05:38PM 43.0708 -71.0333 71° East  Level FlightAware Approximate
05:38PM 42.8667 -71.3000 51° Northeast 311 358 8,200  Level KA90
05:39PM 43.0305 -70.9138 144° Southeast  Level FlightAware Approximate
05:40PM 42.9336 -70.8943 202° Southwest  Level FlightAware Approximate
05:40PM 43.0308 -71.1419 35° Northeast 364 419 11,900  Level Boston Center
05:41PM 43.0686 -70.9964 70° East 365 420 14,200 2,100 Climbing Boston Center
05:42PM 43.0072 -70.9267 140° Southeast 325 374 16,100 1,860 Climbing Boston Center
05:43PM 42.8722 -70.9556 189° South 339 390 18,000 1,560 Climbing Boston Center
05:44PM 42.7850 -70.9803 192° South 364 419 19,300 1,800 Climbing Boston Center
05:45PM 42.6525 -71.0483 201° Southwest 393 452 21,600 1,800 Climbing Boston Center
05:46PM 42.5406 -71.1072 201° Southwest 416 479 23,000 1,320 Climbing Boston Center
05:47PM 42.4753 -71.2353 235° Southwest 406 467 24,300 1,320 Climbing Boston Center
05:48PM 42.4436 -71.3964 255° West 407 468 25,700 1,500 Climbing Boston Center
05:49PM 42.4156 -71.5514 256° West 422 486 27,300 1,500 Climbing Boston Center
05:50PM 42.3772 -71.7039 251° West 429 494 28,800 1,500 Climbing Boston Center
05:51PM 42.3258 -71.8392 243° Southwest 423 487 30,300 1,380 Climbing Boston Center
05:52PM 42.2661 -71.9772 240° Southwest 418 481 31,600 1,200 Climbing Boston Center
05:53PM 42.2081 -72.1094 239° Southwest 418 481 32,700 1,080 Climbing Boston Center
05:54PM 42.1481 -72.2386 238° Southwest 418 481 33,800 600 Climbing Boston Center
05:55PM 42.1022 -72.3422 239° Southwest 418 481 34,000 60 Climbing Boston Center
05:56PM 42.0378 -72.4847 239° Southwest 412 474 34,000  Level Boston Center
05:57PM 41.9814 -72.6189 241° Southwest 412 474 34,000  Level Boston Center
05:58PM 41.9372 -72.7472 245° Southwest 400 460 34,000  Level Boston Center
05:59PM 41.8889 -72.8836 245° Southwest 400 460 34,000  Level Boston Center
06:00PM 41.8361 -73.0281 244° Southwest 411 473 34,000  Level Boston Center
06:01PM 41.7833 -73.1639 243° Southwest 416 479 34,000  Level Boston Center
06:02PM 41.7261 -73.2939 240° Southwest 416 479 34,000  Level Boston Center
06:03PM 41.6583 -73.4153 233° Southwest 416 479 34,000  Level Boston Center
06:04PM 41.5758 -73.5583 232° Southwest 416 479 34,000  Level Boston Center
06:06PM 41.4308 -73.8011 232° Southwest 398 458 34,000  Level New York Center
06:07PM 41.3614 -73.9167 231° Southwest 409 471 34,000  Level New York Center
06:08PM 41.2850 -74.0400 231° Southwest 414 476 34,000  Level New York Center
06:09PM 41.2131 -74.1581 231° Southwest 414 476 34,000  Level New York Center
06:10PM 41.1367 -74.2753 229° Southwest 420 483 34,000  Level New York Center
06:11PM 41.0644 -74.3928 231° Southwest 420 483 34,000  Level New York Center
06:12PM 40.9919 -74.5097 231° Southwest 420 483 34,000  Level New York Center
06:13PM 40.9194 -74.6319 232° Southwest 420 483 34,000  Level New York Center
06:14PM 40.8467 -74.7458 230° Southwest 420 483 34,000  Level New York Center
06:15PM 40.7781 -74.8706 234° Southwest 420 483 34,000  Level New York Center
06:16PM 40.7192 -75.0014 239° Southwest 426 490 34,000  Level New York Center
06:17PM 40.6581 -75.1369 239° Southwest 426 490 34,000  Level New York Center
06:18PM 40.5989 -75.2644 239° Southwest 421 484 34,000  Level New York Center
06:19PM 40.5397 -75.3972 240° Southwest 421 484 34,000  Level New York Center
06:20PM 40.4825 -75.5269 240° Southwest 421 484 34,000  Level New York Center
06:21PM 40.4206 -75.6617 239° Southwest 421 484 34,000  Level New York Center
06:22PM 40.3611 -75.7883 238° Southwest 416 479 34,000  Level New York Center
06:23PM 40.2925 -75.9275 237° Southwest 410 472 34,000  Level New York Center
06:24PM 40.2308 -76.0536 237° Southwest 415 478 34,000  Level New York Center
06:25PM 40.1731 -76.1794 239° Southwest 415 478 34,000  Level New York Center
06:26PM 40.1194 -76.2975 239° Southwest 406 467 34,000  Level New York Center
06:27PM 40.0614 -76.4258 239° Southwest 412 474 34,000  Level New York Center
06:28PM 40.0028 -76.5567 240° Southwest 412 474 34,000  Level New York Center
06:29PM 39.9422 -76.6844 238° Southwest 412 474 34,000  Level New York Center
06:30PM 39.8817 -76.8119 238° Southwest 417 480 34,000  Level New York Center
06:32PM 39.7522 -77.0919 239° Southwest 413 475 34,000  Level Washington Center
06:33PM 39.6922 -77.2175 238° Southwest 413 475 34,000  Level Washington Center
06:34PM 39.6322 -77.3347 236° Southwest 402 463 34,000  Level Washington Center
06:35PM 39.5850 -77.4306 237° Southwest 402 463 34,000  Level Washington Center
06:36PM 39.5119 -77.5739 237° Southwest 402 463 34,000  Level Washington Center
06:37PM 39.4556 -77.6961 239° Southwest 408 470 34,000 -60 Level Washington Center
06:38PM 39.3972 -77.8206 239° Southwest 408 470 33,900  Descending Washington Center
06:39PM 39.3447 -77.9506 242° Southwest 408 470 34,000  Climbing Washington Center
06:40PM 39.2900 -78.0775 241° Southwest 408 470 34,000  Level Washington Center
06:41PM 39.2481 -78.1914 245° Southwest 403 464 34,000  Level Washington Center
06:42PM 39.1972 -78.3153 242° Southwest 403 464 34,000  Level Washington Center
06:43PM 39.1464 -78.4419 243° Southwest 403 464 34,000  Level Washington Center
06:44PM 39.0978 -78.5631 243° Southwest 403 464 34,000  Level Washington Center
06:45PM 39.0486 -78.6867 243° Southwest 403 464 34,000  Level Washington Center
06:46PM 38.9997 -78.8103 243° Southwest 403 464 34,000  Level Washington Center
06:47PM 38.9503 -78.9336 243° Southwest 398 458 34,000  Level Washington Center
06:48PM 38.8989 -79.0567 242° Southwest 398 458 34,000  Level Washington Center
06:49PM 38.8494 -79.1822 243° Southwest 398 458 34,000  Level Washington Center
06:50PM 38.8203 -79.3167 254° West 398 458 34,000  Level Washington Center
06:51PM 38.7969 -79.4594 258° West 398 458 34,000  Level Washington Center
06:52PM 38.7736 -79.6019 258° West 405 466 34,000  Level Washington Center
06:53PM 38.7456 -79.7522 257° West 412 474 34,000  Level Washington Center
06:54PM 38.7197 -79.8892 256° West 407 468 34,000  Level Washington Center
06:55PM 38.6975 -79.9894 254° West 394 453 34,000  Level Indianapolis Center
06:56PM 38.6714 -80.1278 256° West 400 460 34,000  Level Indianapolis Center
06:57PM 38.6458 -80.2664 257° West 400 460 34,000  Level Indianapolis Center
06:58PM 38.6181 -80.4064 256° West 402 463 34,000  Level Indianapolis Center
06:59PM 38.5922 -80.5486 257° West 410 472 34,000  Level Indianapolis Center
07:00PM 38.5575 -80.7242 256° West 418 481 34,000  Level Indianapolis Center
07:01PM 38.5300 -80.8661 256° West 417 480 34,000  Level Indianapolis Center
07:03PM 38.5017 -81.0106 256° West 417 480 34,000  Level Indianapolis Center
07:04PM 38.4731 -81.1542 256° West 416 479 34,000  Level Indianapolis Center
07:05PM 38.4433 -81.3000 255° West 420 483 34,000  Level Indianapolis Center
07:06PM 38.4131 -81.4456 255° West 419 482 34,000  Level Indianapolis Center
07:07PM 38.3861 -81.5881 256° West 411 473 34,000  Level Indianapolis Center
07:08PM 38.3564 -81.7292 255° West 409 471 34,000  Level Indianapolis Center
07:09PM 38.2733 -81.8111 218° Southwest 389 448 34,000  Level Indianapolis Center
07:10PM 38.1522 -81.8603 198° South 383 441 34,000  Level Indianapolis Center
07:11PM 38.0497 -81.9022 198° South 385 443 34,000  Level Indianapolis Center
07:12PM 37.9469 -81.9447 198° South 388 447 34,000  Level Indianapolis Center
07:13PM 37.8436 -81.9900 199° South 392 451 34,000  Level Indianapolis Center
07:14PM 37.7358 -82.0369 199° South 389 448 34,000  Level Indianapolis Center
07:15PM 37.6336 -82.0844 200° South 390 449 34,000  Level Indianapolis Center
07:16PM 37.5294 -82.1264 198° South 391 450 34,000  Level Indianapolis Center
07:17PM 37.4253 -82.1725 199° South 395 455 34,000  Level Indianapolis Center
07:18PM 37.3025 -82.2244 199° South 399 459 34,000  Level Indianapolis Center
07:19PM 37.1975 -82.2689 199° South 396 456 34,000  Level Indianapolis Center
07:20PM 37.0928 -82.3122 198° South 395 455 34,000  Level Indianapolis Center
07:21PM 36.9869 -82.3561 198° South 398 458 34,000  Level Indianapolis Center
07:22PM 36.8794 -82.3992 198° South 400 460 34,000  Level Indianapolis Center
07:23PM 36.7725 -82.4439 199° South 402 463 34,000  Level Indianapolis Center
07:24PM 36.6669 -82.4900 199° South 398 458 34,000  Level Indianapolis Center
07:25PM 36.5767 -82.5239 197° South 398 458 34,000  Level Atlanta Center
07:26PM 36.4708 -82.5697 199° South 398 458 34,000  Level Atlanta Center
07:27PM 36.3650 -82.6156 199° South 403 464 34,000  Level Atlanta Center
07:28PM 36.2592 -82.6586 198° South 403 464 34,000  Level Atlanta Center
07:29PM 36.1511 -82.7017 198° South 403 464 34,000  Level Atlanta Center
07:30PM 36.0347 -82.7497 198° South 403 464 34,000  Level Atlanta Center
07:31PM 35.9289 -82.7975 200° South 403 464 34,000  Level Atlanta Center
07:32PM 35.8208 -82.8403 198° South 403 464 34,000  Level Atlanta Center
07:33PM 35.7150 -82.8853 199° South 403 464 34,000  Level Atlanta Center
07:34PM 35.6089 -82.9300 199° South 403 464 34,000 -960 Level Atlanta Center
07:35PM 35.5050 -82.9878 204° Southwest 409 471 32,100 -1,860 Descending Atlanta Center
07:36PM 35.4014 -83.0528 207° Southwest 419 482 30,300 -1,500 Descending Atlanta Center
07:37PM 35.2975 -83.1200 208° Southwest 424 488 29,200 -1,200 Descending Atlanta Center
07:38PM 35.1936 -83.1797 205° Southwest 424 488 27,900 -1,140 Descending Atlanta Center
07:39PM 35.0897 -83.2467 208° Southwest 424 488 27,000 -1,140 Descending Atlanta Center
07:40PM 34.9836 -83.3086 206° Southwest 433 498 25,700 -1,020 Descending Atlanta Center
07:41PM 34.8778 -83.3753 207° Southwest 426 490 25,000 -900 Descending Atlanta Center
07:42PM 34.7736 -83.4344 205° Southwest 426 490 24,000 -840 Descending Atlanta Center
07:43PM 34.6656 -83.5008 207° Southwest 426 490 23,400 -600 Descending Atlanta Center
07:44PM 34.5739 -83.5544 206° Southwest 420 483 22,800 -600 Descending Atlanta Center
07:45PM 34.4739 -83.6156 207° Southwest 412 474 22,300 -1,200 Descending Atlanta Center
07:46PM 34.3614 -83.6814 206° Southwest 412 474 20,400 -2,400 Descending Atlanta Center
07:47PM 34.2636 -83.7422 207° Southwest 399 459 17,500 -2,760 Descending Atlanta Center
07:48PM 34.1675 -83.7978 206° Southwest 393 452 14,900 -1,800 Descending Atlanta Center
07:49PM 34.0781 -83.8533 207° Southwest 378 435 14,000 -840 Descending Atlanta Center
07:50PM 34.0167 -83.9333 227° Southwest 370 426 13,400 -1,380 Descending Atlanta TRACON
07:51PM 33.9500 -84.0167 226° Southwest 367 422 11,600 -1,320 Descending Atlanta TRACON
07:52PM 33.8833 -84.0667 212° Southwest 334 384 11,000 -360 Descending Atlanta TRACON
07:53PM 33.8333 -84.1500 234° Southwest 279 321 11,000  Level Atlanta TRACON
07:54PM 33.8000 -84.2333 244° Southwest 278 320 11,000  Level Atlanta TRACON
07:55PM 33.7833 -84.3167 256° West 282 325 11,000 -420 Level Atlanta TRACON
07:56PM 33.7667 -84.4000 256° West 277 319 10,300 -1,740 Descending Atlanta TRACON
07:56PM 33.7500 -84.4833 256° West 275 316 7,800 -2,640 Descending Atlanta TRACON
07:57PM 33.7333 -84.5667 256° West 269 310 5,300 -1,440 Descending Atlanta TRACON
07:58PM 33.7333 -84.6667 270° West 270 311 5,000 -300 Descending Atlanta TRACON
07:59PM 33.6833 -84.7000 209° Southwest 230 265 4,700 -480 Descending Atlanta TRACON
08:00PM 33.6500 -84.6500 129° Southeast 191 220 4,100 -600 Descending Atlanta TRACON